Time;durP1;ratioP1;P1;durP2;ratioP2;P2;SDS_P1;SDS_P2;PMS_P1;PMS_P2;Temp;Humidity;BMP_temperature;BMP_pressure;BME280_temperature;BME280_humidity;BME280_pressure;Samples;Min_cycle;Max_cycle;Signal;HPM_P1;HPM_P2
2023/09/02 00:01:16;;;;;;;0.50;0.40;;;;;;;;;;6215130;23;20166;-94
2023/09/02 00:03:45;;;;;;;0.45;0.40;;;;;;;;;;6214991;23;20228;-94
2023/09/02 00:06:13;;;;;;;0.47;0.47;;;;;;;;;;6214750;23;20185;-95
2023/09/02 00:08:40;;;;;;;0.75;0.70;;;;;;;;;;6213903;23;20165;-94
2023/09/02 00:11:08;;;;;;;0.43;0.43;;;;;;;;;;6214650;23;20169;-95
2023/09/02 00:13:36;;;;;;;1.27;0.60;;;;;;;;;;6214327;23;20158;-94
2023/09/02 00:16:04;;;;;;;0.70;0.70;;;;;;;;;;6214272;23;20186;-94
2023/09/02 00:18:31;;;;;;;1.35;0.50;;;;;;;;;;6213797;23;20198;-94
2023/09/02 00:21:00;;;;;;;0.38;0.38;;;;;;;;;;6193954;23;20190;-93
2023/09/02 00:23:28;;;;;;;0.50;0.50;;;;;;;;;;6189179;23;20193;-93
2023/09/02 00:25:56;;;;;;;0.90;0.70;;;;;;;;;;6189989;23;20218;-94
2023/09/02 00:28:23;;;;;;;0.55;0.50;;;;;;;;;;6189804;23;20166;-94
2023/09/02 00:30:51;;;;;;;0.73;0.50;;;;;;;;;;6189449;23;20173;-93
2023/09/02 00:33:18;;;;;;;0.32;0.32;;;;;;;;;;6189051;23;20175;-93
2023/09/02 00:35:46;;;;;;;0.30;0.30;;;;;;;;;;6188972;23;20206;-93
2023/09/02 00:38:15;;;;;;;0.40;0.40;;;;;;;;;;6189157;23;20190;-94
2023/09/02 00:40:47;;;;;;;0.55;0.55;;;;;;;;;;6188592;23;20187;-93
2023/09/02 00:43:14;;;;;;;0.52;0.52;;;;;;;;;;6188480;23;20725;-93
2023/09/02 00:45:44;;;;;;;0.80;0.80;;;;;;;;;;6188822;23;20214;-94
2023/09/02 00:48:11;;;;;;;0.65;0.65;;;;;;;;;;6188813;23;20193;-93
2023/09/02 00:50:39;;;;;;;0.88;0.70;;;;;;;;;;6188179;23;20175;-94
2023/09/02 00:53:06;;;;;;;0.65;0.65;;;;;;;;;;6188196;23;20209;-93
2023/09/02 00:55:35;;;;;;;1.23;1.10;;;;;;;;;;6188172;23;20214;-93
2023/09/02 00:58:03;;;;;;;0.73;0.73;;;;;;;;;;6188687;23;20197;-93
2023/09/02 01:00:31;;;;;;;1.05;1.05;;;;;;;;;;6188037;23;20547;-95
2023/09/02 01:02:59;;;;;;;0.63;0.63;;;;;;;;;;6188597;23;20364;-94
2023/09/02 01:05:27;;;;;;;0.90;0.90;;;;;;;;;;6188804;23;20750;-93
2023/09/02 01:07:55;;;;;;;0.30;0.30;;;;;;;;;;6188834;23;20254;-94
2023/09/02 01:10:23;;;;;;;0.60;0.60;;;;;;;;;;6188422;23;20561;-93
2023/09/02 01:12:52;;;;;;;0.60;0.60;;;;;;;;;;6188558;23;20170;-93
2023/09/02 01:15:20;;;;;;;0.70;0.70;;;;;;;;;;6187573;23;20166;-93
2023/09/02 01:17:47;;;;;;;0.60;0.60;;;;;;;;;;6188007;23;20631;-94
2023/09/02 01:20:16;;;;;;;0.70;0.70;;;;;;;;;;6191712;23;20651;-94
2023/09/02 01:23:24;;;;;;;1.00;1.00;;;;;;;;;;6187886;23;20167;-94
2023/09/02 01:26:12;;;;;;;0.80;0.80;;;;;;;;;;6183814;23;20298;-93
2023/09/02 01:28:42;;;;;;;1.25;1.15;;;;;;;;;;6187436;23;20174;-93
2023/09/02 01:31:13;;;;;;;1.00;1.00;;;;;;;;;;6187651;23;20174;-93
2023/09/02 01:33:42;;;;;;;1.00;1.00;;;;;;;;;;6188463;23;20167;-93
2023/09/02 01:36:12;;;;;;;1.08;1.08;;;;;;;;;;6187712;23;20220;-93
2023/09/02 01:38:41;;;;;;;1.38;1.27;;;;;;;;;;6187672;23;20170;-93
2023/09/02 01:41:10;;;;;;;2.85;1.80;;;;;;;;;;6190149;23;20170;-93
2023/09/02 01:43:40;;;;;;;1.15;1.10;;;;;;;;;;6197085;23;20170;-95
2023/09/02 01:46:08;;;;;;;1.88;0.90;;;;;;;;;;6188498;23;20275;-93
2023/09/02 01:48:36;;;;;;;1.30;1.20;;;;;;;;;;6188898;23;20201;-94
2023/09/02 01:51:03;;;;;;;1.02;1.00;;;;;;;;;;6191757;23;20623;-94
2023/09/02 01:53:31;;;;;;;1.00;1.00;;;;;;;;;;6190391;23;20189;-94
2023/09/02 01:55:59;;;;;;;1.85;0.90;;;;;;;;;;6188304;23;20195;-94
2023/09/02 01:58:27;;;;;;;1.65;1.55;;;;;;;;;;6191970;23;20182;-94
2023/09/02 02:01:09;;;;;;;1.10;1.08;;;;;;;;;;6189682;23;20186;-93
2023/09/02 02:03:42;;;;;;;1.45;1.08;;;;;;;;;;6192405;23;20162;-94
2023/09/02 02:06:10;;;;;;;1.20;1.20;;;;;;;;;;6194357;23;20194;-94
2023/09/02 02:08:53;;;;;;;1.02;1.02;;;;;;;;;;6188348;23;20174;-93
2023/09/02 02:11:22;;;;;;;1.77;1.08;;;;;;;;;;6187953;23;20626;-93
2023/09/02 02:13:50;;;;;;;2.10;1.23;;;;;;;;;;6187380;23;20193;-93
2023/09/02 02:16:22;;;;;;;2.35;1.33;;;;;;;;;;6187942;23;20266;-93
2023/09/02 02:18:50;;;;;;;1.40;1.30;;;;;;;;;;6187746;23;20174;-93
2023/09/02 02:21:18;;;;;;;4.20;2.22;;;;;;;;;;6187960;23;20166;-93
2023/09/02 02:23:46;;;;;;;1.30;1.20;;;;;;;;;;6188124;23;20201;-93
2023/09/02 02:26:15;;;;;;;1.42;1.33;;;;;;;;;;6187651;23;20254;-93
2023/09/02 02:28:43;;;;;;;1.02;1.02;;;;;;;;;;6187581;23;20178;-93
2023/09/02 02:31:10;;;;;;;1.40;1.30;;;;;;;;;;6187369;23;20249;-94
2023/09/02 02:33:39;;;;;;;1.33;1.30;;;;;;;;;;6186838;23;20237;-93
2023/09/02 02:36:09;;;;;;;1.35;1.30;;;;;;;;;;6187548;23;20206;-94
2023/09/02 02:38:36;;;;;;;1.27;1.23;;;;;;;;;;6187581;23;20186;-94
2023/09/02 02:41:04;;;;;;;1.23;1.23;;;;;;;;;;6187137;23;20493;-93
2023/09/02 02:43:31;;;;;;;1.35;1.27;;;;;;;;;;6186525;23;20197;-94
2023/09/02 02:45:59;;;;;;;1.17;1.08;;;;;;;;;;6186727;23;20229;-93
2023/09/02 02:48:29;;;;;;;1.70;1.60;;;;;;;;;;6186935;23;20631;-93
2023/09/02 02:50:59;;;;;;;1.63;1.52;;;;;;;;;;6186541;23;20170;-95
2023/09/02 02:53:26;;;;;;;1.15;1.15;;;;;;;;;;6190983;23;20197;-93
2023/09/02 02:55:54;;;;;;;1.40;1.30;;;;;;;;;;6186692;23;20228;-93
2023/09/02 02:58:22;;;;;;;4.10;1.73;;;;;;;;;;6187079;23;20177;-94
2023/09/02 03:00:50;;;;;;;1.88;1.77;;;;;;;;;;6188586;23;20186;-93
2023/09/02 03:03:20;;;;;;;1.60;1.33;;;;;;;;;;6186385;23;20189;-93
2023/09/02 03:05:48;;;;;;;1.50;1.40;;;;;;;;;;6160616;23;20253;-93
2023/09/02 03:08:17;;;;;;;2.13;1.17;;;;;;;;;;6186484;23;20197;-93
2023/09/02 03:10:45;;;;;;;1.20;1.20;;;;;;;;;;6186820;23;20193;-93
2023/09/02 03:13:13;;;;;;;2.33;1.40;;;;;;;;;;6186311;23;20245;-93
2023/09/02 03:15:47;;;;;;;1.35;1.25;;;;;;;;;;6186954;23;20216;-93
2023/09/02 03:18:14;;;;;;;1.52;1.42;;;;;;;;;;6186830;23;20225;-93
2023/09/02 03:20:42;;;;;;;1.67;1.58;;;;;;;;;;6186281;23;20200;-93
2023/09/02 03:23:10;;;;;;;1.50;1.40;;;;;;;;;;6189005;23;20182;-94
2023/09/02 03:25:39;;;;;;;1.15;1.15;;;;;;;;;;6189272;23;20210;-93
2023/09/02 03:28:07;;;;;;;1.50;1.40;;;;;;;;;;6187946;23;20182;-93
2023/09/02 03:30:34;;;;;;;1.38;1.27;;;;;;;;;;6187268;23;20186;-93
2023/09/02 03:33:03;;;;;;;1.40;1.30;;;;;;;;;;6191070;23;20194;-93
2023/09/02 03:35:30;;;;;;;1.20;1.20;;;;;;;;;;6187076;23;20205;-94
2023/09/02 03:37:58;;;;;;;1.55;1.45;;;;;;;;;;6187834;23;20197;-93
2023/09/02 03:40:25;;;;;;;0.93;0.93;;;;;;;;;;6187874;23;20181;-94
2023/09/02 03:42:55;;;;;;;1.25;1.15;;;;;;;;;;6189728;23;20182;-94
2023/09/02 03:45:22;;;;;;;1.33;1.20;;;;;;;;;;6189454;23;20181;-94
2023/09/02 03:47:50;;;;;;;1.48;1.38;;;;;;;;;;6193286;23;20214;-95
2023/09/02 03:50:26;;;;;;;1.75;1.10;;;;;;;;;;6188223;23;20190;-94
2023/09/02 03:52:54;;;;;;;1.05;1.05;;;;;;;;;;6185452;23;20219;-94
2023/09/02 03:55:22;;;;;;;0.80;0.80;;;;;;;;;;6185830;23;20182;-94
2023/09/02 03:57:49;;;;;;;0.80;0.80;;;;;;;;;;6186187;23;20190;-94
2023/09/02 04:00:19;;;;;;;0.80;0.80;;;;;;;;;;6187454;23;20190;-94
2023/09/02 04:02:46;;;;;;;0.88;0.88;;;;;;;;;;6187464;23;20167;-94
2023/09/02 04:05:14;;;;;;;1.02;1.02;;;;;;;;;;6188186;23;20218;-93
2023/09/02 04:07:42;;;;;;;0.90;0.90;;;;;;;;;;6187665;23;20214;-93
2023/09/02 04:10:10;;;;;;;0.90;0.90;;;;;;;;;;6187623;23;20174;-94
2023/09/02 04:12:38;;;;;;;0.90;0.90;;;;;;;;;;6187133;23;20245;-94
2023/09/02 04:15:08;;;;;;;0.80;0.80;;;;;;;;;;6187000;23;20190;-94
2023/09/02 04:17:37;;;;;;;0.98;0.98;;;;;;;;;;6186594;23;20170;-94
2023/09/02 04:20:06;;;;;;;0.55;0.55;;;;;;;;;;6188249;23;20181;-94
2023/09/02 04:22:34;;;;;;;0.75;0.75;;;;;;;;;;6187240;23;20333;-94
2023/09/02 04:25:01;;;;;;;0.60;0.60;;;;;;;;;;6186466;23;20257;-94
2023/09/02 04:27:29;;;;;;;0.50;0.50;;;;;;;;;;6186401;23;20208;-93
2023/09/02 04:29:57;;;;;;;0.60;0.60;;;;;;;;;;6186870;23;20190;-94
2023/09/02 04:32:24;;;;;;;0.50;0.50;;;;;;;;;;6187238;23;20178;-94
2023/09/02 04:34:53;;;;;;;0.75;0.75;;;;;;;;;;6187297;23;20671;-95
2023/09/02 04:37:21;;;;;;;0.70;0.70;;;;;;;;;;6188817;23;20206;-94
2023/09/02 04:39:48;;;;;;;0.70;0.60;;;;;;;;;;6188868;23;20215;-94
2023/09/02 04:42:16;;;;;;;0.88;0.88;;;;;;;;;;6189028;23;20182;-93
2023/09/02 04:44:44;;;;;;;0.85;0.85;;;;;;;;;;6193214;23;20172;-94
2023/09/02 04:47:12;;;;;;;0.85;0.85;;;;;;;;;;6189730;23;20226;-93
2023/09/02 04:49:40;;;;;;;0.77;0.77;;;;;;;;;;6189139;23;20174;-94
2023/09/02 04:52:09;;;;;;;0.98;0.98;;;;;;;;;;6189162;23;20174;-94
2023/09/02 04:54:36;;;;;;;1.88;1.10;;;;;;;;;;6189224;23;20551;-95
2023/09/02 04:57:04;;;;;;;0.93;0.93;;;;;;;;;;6188959;23;20194;-93
2023/09/02 04:59:32;;;;;;;0.98;0.98;;;;;;;;;;6189111;23;20190;-93
2023/09/02 05:02:00;;;;;;;0.73;0.73;;;;;;;;;;6188902;23;20194;-94
2023/09/02 05:04:27;;;;;;;1.10;1.10;;;;;;;;;;6188100;23;20182;-94
2023/09/02 05:06:55;;;;;;;0.80;0.80;;;;;;;;;;6189506;23;20214;-94
2023/09/02 05:09:24;;;;;;;0.80;0.80;;;;;;;;;;6190112;23;20242;-93
2023/09/02 05:11:51;;;;;;;0.88;0.88;;;;;;;;;;6188488;23;20192;-94
2023/09/02 05:14:19;;;;;;;0.88;0.88;;;;;;;;;;6189125;23;20187;-94
2023/09/02 05:16:47;;;;;;;0.80;0.80;;;;;;;;;;6189044;23;20233;-94
2023/09/02 05:19:14;;;;;;;0.90;0.90;;;;;;;;;;6189342;23;20182;-93
2023/09/02 05:21:42;;;;;;;0.95;0.95;;;;;;;;;;6188921;23;20230;-94
2023/09/02 05:24:09;;;;;;;0.85;0.85;;;;;;;;;;6190251;23;20174;-94
2023/09/02 05:26:38;;;;;;;0.70;0.70;;;;;;;;;;6189211;23;20257;-94
2023/09/02 05:29:06;;;;;;;0.80;0.80;;;;;;;;;;6189607;23;20194;-94
2023/09/02 05:31:34;;;;;;;0.90;0.90;;;;;;;;;;6189823;23;20209;-94
2023/09/02 05:34:01;;;;;;;1.00;1.00;;;;;;;;;;6189524;23;20181;-94
2023/09/02 05:36:29;;;;;;;0.82;0.82;;;;;;;;;;6188068;23;20203;-93
2023/09/02 05:38:57;;;;;;;0.85;0.85;;;;;;;;;;6189826;23;20611;-93
2023/09/02 05:41:24;;;;;;;0.80;0.80;;;;;;;;;;6189429;23;20170;-94
2023/09/02 05:43:54;;;;;;;1.20;1.15;;;;;;;;;;6188755;23;20177;-94
2023/09/02 05:46:21;;;;;;;0.80;0.80;;;;;;;;;;6190450;23;20198;-94
2023/09/02 05:48:49;;;;;;;0.95;0.95;;;;;;;;;;6189563;23;20269;-93
2023/09/02 05:51:16;;;;;;;0.90;0.90;;;;;;;;;;6188789;23;20186;-93
2023/09/02 05:53:47;;;;;;;0.73;0.73;;;;;;;;;;6188963;23;20547;-93
2023/09/02 05:56:14;;;;;;;1.00;1.00;;;;;;;;;;6188573;23;20197;-93
2023/09/02 05:58:42;;;;;;;0.80;0.80;;;;;;;;;;6188829;23;20190;-93
2023/09/02 06:01:11;;;;;;;0.80;0.80;;;;;;;;;;6188889;23;20171;-93
2023/09/02 06:03:39;;;;;;;0.90;0.90;;;;;;;;;;6189130;23;20170;-94
2023/09/02 06:06:11;;;;;;;0.82;0.82;;;;;;;;;;6190231;23;20202;-94
2023/09/02 06:08:38;;;;;;;1.00;1.00;;;;;;;;;;6189616;23;20205;-94
2023/09/02 06:11:06;;;;;;;1.00;1.00;;;;;;;;;;6189193;23;20185;-94
2023/09/02 06:13:34;;;;;;;0.70;0.70;;;;;;;;;;6189206;23;20171;-94
2023/09/02 06:16:04;;;;;;;0.80;0.80;;;;;;;;;;6189551;23;20742;-93
2023/09/02 06:18:35;;;;;;;0.75;0.75;;;;;;;;;;6189495;23;20680;-93
2023/09/02 06:21:10;;;;;;;0.70;0.70;;;;;;;;;;6191590;23;20183;-95
2023/09/02 06:23:37;;;;;;;0.80;0.80;;;;;;;;;;6190608;23;20165;-93
2023/09/02 06:26:05;;;;;;;1.05;0.95;;;;;;;;;;6192849;23;20547;-94
2023/09/02 06:28:33;;;;;;;0.95;0.95;;;;;;;;;;6191938;23;20598;-93
2023/09/02 06:31:06;;;;;;;1.83;1.73;;;;;;;;;;6196421;23;20515;-94
2023/09/02 06:33:35;;;;;;;1.77;1.67;;;;;;;;;;6194440;23;20163;-94
2023/09/02 06:36:11;;;;;;;1.40;1.30;;;;;;;;;;6193804;23;20206;-93
2023/09/02 06:38:38;;;;;;;1.15;1.15;;;;;;;;;;6192250;23;20165;-95
2023/09/02 06:41:11;;;;;;;1.08;1.08;;;;;;;;;;6194570;23;20190;-94
2023/09/02 06:43:39;;;;;;;0.88;0.88;;;;;;;;;;6191647;23;20182;-94
2023/09/02 06:46:12;;;;;;;1.38;1.27;;;;;;;;;;6193275;23;20201;-93
2023/09/02 06:48:41;;;;;;;1.33;1.30;;;;;;;;;;6192707;23;20226;-93
2023/09/02 06:51:09;;;;;;;1.00;1.00;;;;;;;;;;6192312;23;20181;-94
2023/09/02 06:53:36;;;;;;;1.10;1.10;;;;;;;;;;6191162;23;20187;-93
2023/09/02 06:56:08;;;;;;;1.20;1.20;;;;;;;;;;6193882;23;20190;-94
2023/09/02 06:58:36;;;;;;;1.27;1.27;;;;;;;;;;6193726;23;20269;-93
2023/09/02 07:01:03;;;;;;;1.30;1.20;;;;;;;;;;6196807;23;20171;-93
2023/09/02 07:03:31;;;;;;;1.52;1.42;;;;;;;;;;6196961;23;20174;-95
2023/09/02 07:06:08;;;;;;;2.08;1.88;;;;;;;;;;6197231;23;20217;-94
2023/09/02 07:08:36;;;;;;;1.42;1.38;;;;;;;;;;6198864;23;20190;-94
2023/09/02 07:11:05;;;;;;;1.67;1.58;;;;;;;;;;6198752;23;20194;-93
2023/09/02 07:13:33;;;;;;;1.80;1.70;;;;;;;;;;6201350;23;20239;-95
2023/09/02 07:16:01;;;;;;;2.10;1.90;;;;;;;;;;6207018;23;20191;-93
2023/09/02 07:18:29;;;;;;;1.98;1.80;;;;;;;;;;6206023;23;20181;-94
2023/09/02 07:20:59;;;;;;;1.70;1.60;;;;;;;;;;6201679;23;20174;-94
2023/09/02 07:23:30;;;;;;;1.05;1.05;;;;;;;;;;6206669;23;20182;-94
2023/09/02 07:25:59;;;;;;;1.75;1.65;;;;;;;;;;6206601;23;20209;-94
2023/09/02 07:28:27;;;;;;;1.30;1.20;;;;;;;;;;6205463;23;20201;-93
2023/09/02 07:30:58;;;;;;;1.60;1.50;;;;;;;;;;6205965;23;20174;-95
2023/09/02 07:33:26;;;;;;;1.33;1.23;;;;;;;;;;6209075;23;20155;-94
2023/09/02 07:35:53;;;;;;;1.50;1.40;;;;;;;;;;6208570;23;20194;-96
2023/09/02 07:38:21;;;;;;;1.55;1.45;;;;;;;;;;6209815;23;20158;-94
2023/09/02 07:40:50;;;;;;;3.10;1.30;;;;;;;;;;6208350;23;20179;-94
2023/09/02 07:43:18;;;;;;;1.88;1.77;;;;;;;;;;6210551;23;20170;-95
2023/09/02 07:45:45;;;;;;;1.45;1.33;;;;;;;;;;6211135;23;20445;-95
2023/09/02 07:48:13;;;;;;;1.13;1.10;;;;;;;;;;6207961;23;20178;-93
2023/09/02 07:50:40;;;;;;;1.38;1.27;;;;;;;;;;6208574;23;20170;-94
2023/09/02 07:53:08;;;;;;;1.55;1.45;;;;;;;;;;6212403;23;20158;-95
2023/09/02 07:55:36;;;;;;;1.88;1.77;;;;;;;;;;6212566;23;20189;-95
2023/09/02 07:58:05;;;;;;;1.33;1.23;;;;;;;;;;6211521;23;20177;-94
2023/09/02 08:00:36;;;;;;;1.15;1.15;;;;;;;;;;6211462;23;20170;-94
2023/09/02 08:03:05;;;;;;;0.93;0.93;;;;;;;;;;6211808;23;20159;-95
2023/09/02 08:05:33;;;;;;;1.20;1.20;;;;;;;;;;6212344;23;20175;-95
2023/09/02 08:08:01;;;;;;;1.15;1.15;;;;;;;;;;6212206;23;20161;-94
2023/09/02 08:10:28;;;;;;;0.80;0.80;;;;;;;;;;6212954;23;20186;-94
2023/09/02 08:12:56;;;;;;;1.08;1.05;;;;;;;;;;6214383;23;20162;-94
2023/09/02 08:15:25;;;;;;;1.42;1.33;;;;;;;;;;6214460;23;20418;-95
2023/09/02 08:17:53;;;;;;;1.10;1.10;;;;;;;;;;6214642;23;20158;-95
2023/09/02 08:20:21;;;;;;;1.50;1.40;;;;;;;;;;6214615;23;20155;-94
2023/09/02 08:22:49;;;;;;;0.90;0.90;;;;;;;;;;6213954;23;20166;-95
2023/09/02 08:25:17;;;;;;;0.90;0.90;;;;;;;;;;6214276;23;20159;-95
2023/09/02 08:27:47;;;;;;;1.20;1.20;;;;;;;;;;6214406;23;20174;-96
2023/09/02 08:30:15;;;;;;;1.58;1.30;;;;;;;;;;6214358;23;20190;-95
2023/09/02 08:32:45;;;;;;;1.50;1.40;;;;;;;;;;6214193;23;20142;-94
2023/09/02 08:35:13;;;;;;;1.92;1.83;;;;;;;;;;6214244;23;20158;-95
2023/09/02 08:37:40;;;;;;;1.67;1.58;;;;;;;;;;6214436;23;20159;-96
2023/09/02 08:40:09;;;;;;;1.60;1.50;;;;;;;;;;6214292;23;20161;-95
2023/09/02 08:42:37;;;;;;;0.90;0.90;;;;;;;;;;6214281;23;20165;-95
2023/09/02 08:45:09;;;;;;;1.25;1.15;;;;;;;;;;6214276;23;20161;-95
2023/09/02 08:47:41;;;;;;;1.00;1.00;;;;;;;;;;6214287;23;20170;-94
2023/09/02 08:50:12;;;;;;;1.25;1.25;;;;;;;;;;6214181;23;20221;-95
2023/09/02 08:52:40;;;;;;;0.95;0.95;;;;;;;;;;6213841;23;20154;-95
2023/09/02 08:55:12;;;;;;;1.77;1.60;;;;;;;;;;6214113;23;20162;-95
2023/09/02 08:57:41;;;;;;;1.55;1.45;;;;;;;;;;6214181;23;20157;-95
2023/09/02 09:00:10;;;;;;;1.50;1.40;;;;;;;;;;6213837;23;20163;-95
2023/09/02 09:02:38;;;;;;;2.95;1.80;;;;;;;;;;6209215;23;20170;-94
2023/09/02 09:05:09;;;;;;;1.75;1.65;;;;;;;;;;6211121;23;20206;-93
2023/09/02 09:07:37;;;;;;;1.90;1.80;;;;;;;;;;6213212;23;20185;-95
2023/09/02 09:10:07;;;;;;;1.70;1.60;;;;;;;;;;6210104;23;20194;-94
2023/09/02 09:12:34;;;;;;;1.27;1.27;;;;;;;;;;6209161;23;20179;-94
2023/09/02 09:15:04;;;;;;;1.95;1.85;;;;;;;;;;6205974;23;20170;-93
2023/09/02 09:17:32;;;;;;;2.83;1.50;;;;;;;;;;6205688;23;20187;-94
2023/09/02 09:20:03;;;;;;;1.52;1.42;;;;;;;;;;6213767;23;20182;-94
2023/09/02 09:22:42;;;;;;;1.92;1.83;;;;;;;;;;6212222;22;20183;-94
2023/09/02 09:27:45;;;;;;;1.33;1.25;;;;;;;;;;6202892;22;20186;-95
2023/09/02 09:30:29;;;;;;;2.42;2.22;;;;;;;;;;6215299;23;20169;-95
2023/09/02 09:33:04;;;;;;;2.05;1.92;;;;;;;;;;6215247;23;20151;-94
2023/09/02 09:35:32;;;;;;;1.83;1.73;;;;;;;;;;6215406;23;20230;-94
2023/09/02 09:38:02;;;;;;;1.33;1.25;;;;;;;;;;6215418;23;20170;-95
2023/09/02 09:40:32;;;;;;;1.42;1.35;;;;;;;;;;6215412;23;20147;-94
2023/09/02 09:43:01;;;;;;;1.60;1.50;;;;;;;;;;6215169;23;20315;-94
2023/09/02 09:45:30;;;;;;;1.73;1.63;;;;;;;;;;6215498;23;20169;-94
2023/09/02 09:48:00;;;;;;;1.60;1.50;;;;;;;;;;6215478;23;20151;-95
2023/09/02 09:50:31;;;;;;;1.40;1.30;;;;;;;;;;6215611;23;20166;-96
2023/09/02 09:53:04;;;;;;;1.38;1.38;;;;;;;;;;6215363;23;20150;-96
2023/09/02 09:55:34;;;;;;;1.02;1.02;;;;;;;;;;6215716;23;20159;-94
2023/09/02 09:58:03;;;;;;;1.20;1.20;;;;;;;;;;6215714;23;20150;-96
2023/09/02 10:00:32;;;;;;;1.45;1.35;;;;;;;;;;6215600;23;20143;-95
2023/09/02 10:03:02;;;;;;;2.15;2.05;;;;;;;;;;6215693;23;20151;-94
2023/09/02 10:05:35;;;;;;;1.40;1.30;;;;;;;;;;6215798;23;20163;-94
2023/09/02 10:08:27;;;;;;;1.60;1.50;;;;;;;;;;6215904;23;20146;-94
2023/09/02 10:10:56;;;;;;;1.80;1.70;;;;;;;;;;6214089;23;20154;-95
2023/09/02 10:13:30;;;;;;;1.70;1.60;;;;;;;;;;6215689;23;20151;-94
2023/09/02 11:37:10;;;;;;;3.33;3.03;;;;;;;;;;6210938;23;20147;-95
2023/09/02 11:39:39;;;;;;;2.50;2.30;;;;;;;;;;6215065;23;20155;-95
2023/09/02 11:42:15;;;;;;;1.73;1.63;;;;;;;;;;6214973;23;20165;-94
2023/09/02 11:45:09;;;;;;;1.30;1.30;;;;;;;;;;6214921;23;20152;-95
2023/09/02 11:47:42;;;;;;;1.23;1.23;;;;;;;;;;6217049;23;20153;-95
2023/09/02 11:50:22;;;;;;;1.33;1.30;;;;;;;;;;6216778;23;20146;-95
2023/09/02 11:52:58;;;;;;;1.45;1.35;;;;;;;;;;6216783;23;20179;-95
2023/09/02 11:55:32;;;;;;;1.55;1.45;;;;;;;;;;6216596;23;20153;-95
2023/09/02 11:58:14;;;;;;;1.15;1.15;;;;;;;;;;6216738;23;20147;-95
2023/09/02 12:00:46;;;;;;;1.38;1.33;;;;;;;;;;6216797;23;20169;-95
2023/09/02 12:03:24;;;;;;;1.50;1.40;;;;;;;;;;6216378;23;20154;-94
2023/09/02 12:05:59;;;;;;;1.17;1.17;;;;;;;;;;6216440;23;20151;-95
2023/09/02 12:08:31;;;;;;;1.65;1.55;;;;;;;;;;6216390;23;20146;-95
2023/09/02 12:11:02;;;;;;;1.98;1.73;;;;;;;;;;6215452;23;20169;-95
2023/09/02 12:13:30;;;;;;;1.30;1.20;;;;;;;;;;6215423;23;20162;-95
2023/09/02 12:15:57;;;;;;;2.45;1.65;;;;;;;;;;6215994;23;20158;-96
2023/09/02 12:18:25;;;;;;;1.08;1.08;;;;;;;;;;6216380;23;20154;-94
2023/09/02 12:20:55;;;;;;;1.33;1.33;;;;;;;;;;6216166;23;20143;-95
2023/09/02 12:23:23;;;;;;;1.20;1.10;;;;;;;;;;6215814;23;20147;-94
2023/09/02 12:26:06;;;;;;;1.50;1.40;;;;;;;;;;6215822;23;20158;-95
2023/09/02 12:28:34;;;;;;;0.93;0.93;;;;;;;;;;6216005;23;20147;-95
2023/09/02 12:31:03;;;;;;;1.50;1.40;;;;;;;;;;6215750;23;20174;-95
2023/09/02 12:33:30;;;;;;;1.02;1.02;;;;;;;;;;6215566;23;20174;-96
2023/09/02 12:36:00;;;;;;;1.30;1.20;;;;;;;;;;6215738;23;20151;-95
2023/09/02 12:38:27;;;;;;;1.17;1.17;;;;;;;;;;6215981;23;20154;-95
2023/09/02 12:40:56;;;;;;;1.42;1.33;;;;;;;;;;6215888;23;20150;-95
2023/09/02 12:43:26;;;;;;;1.38;1.38;;;;;;;;;;6215643;23;20150;-95
2023/09/02 12:45:55;;;;;;;1.00;1.00;;;;;;;;;;6215669;23;20150;-94
2023/09/02 12:48:23;;;;;;;1.00;1.00;;;;;;;;;;6215655;23;20166;-94
2023/09/02 12:50:51;;;;;;;1.60;1.50;;;;;;;;;;6215663;23;20151;-95
2023/09/02 12:53:20;;;;;;;0.95;0.95;;;;;;;;;;6215474;23;20150;-95
2023/09/02 12:55:48;;;;;;;1.30;1.20;;;;;;;;;;6215497;23;20142;-95
2023/09/02 12:58:15;;;;;;;1.50;1.40;;;;;;;;;;6215840;23;20143;-95
2023/09/02 13:00:43;;;;;;;1.10;1.10;;;;;;;;;;6216017;23;20147;-95
2023/09/02 13:03:11;;;;;;;1.00;1.00;;;;;;;;;;6215513;23;20151;-95
2023/09/02 13:05:39;;;;;;;1.08;1.08;;;;;;;;;;6215518;23;20151;-95
2023/09/02 13:08:07;;;;;;;0.90;0.90;;;;;;;;;;6215652;23;20158;-95
2023/09/02 13:10:37;;;;;;;1.27;1.10;;;;;;;;;;6215641;23;20178;-95
2023/09/02 13:13:05;;;;;;;1.10;1.10;;;;;;;;;;6215261;23;20166;-96
2023/09/02 13:15:32;;;;;;;1.20;1.10;;;;;;;;;;6215584;23;20163;-95
2023/09/02 13:18:00;;;;;;;1.20;1.20;;;;;;;;;;6215605;23;20151;-96
2023/09/02 13:20:28;;;;;;;0.95;0.95;;;;;;;;;;6215632;23;20146;-95
2023/09/02 13:22:56;;;;;;;1.20;1.20;;;;;;;;;;6215013;23;20149;-96
2023/09/02 13:25:24;;;;;;;1.35;1.25;;;;;;;;;;6215366;23;20166;-95
2023/09/02 13:27:53;;;;;;;1.38;1.27;;;;;;;;;;6215470;23;20147;-95
2023/09/02 13:30:24;;;;;;;1.15;1.15;;;;;;;;;;6215386;23;20158;-95
2023/09/02 13:32:52;;;;;;;1.00;1.00;;;;;;;;;;6214958;23;20159;-95
2023/09/02 13:35:24;;;;;;;1.27;1.27;;;;;;;;;;6215354;23;20150;-95
2023/09/02 13:37:55;;;;;;;1.30;1.20;;;;;;;;;;6215371;23;20147;-95
2023/09/02 13:40:39;;;;;;;1.20;1.20;;;;;;;;;;6215391;23;20174;-95
2023/09/02 13:43:20;;;;;;;1.20;1.10;;;;;;;;;;6215019;23;20147;-95
2023/09/02 13:45:49;;;;;;;1.10;1.10;;;;;;;;;;6215216;23;20150;-94
2023/09/02 13:48:24;;;;;;;1.25;1.20;;;;;;;;;;6215599;23;20154;-94
2023/09/02 13:50:52;;;;;;;1.10;1.10;;;;;;;;;;6214644;23;20150;-95
2023/09/02 13:53:22;;;;;;;0.82;0.82;;;;;;;;;;6214804;23;20155;-95
2023/09/02 13:55:54;;;;;;;1.00;1.00;;;;;;;;;;6215378;23;20150;-95
2023/09/02 13:58:26;;;;;;;1.27;1.27;;;;;;;;;;6215501;23;20167;-96
2023/09/02 14:00:55;;;;;;;1.30;1.10;;;;;;;;;;6214781;23;20177;-95
2023/09/02 14:03:28;;;;;;;2.50;1.30;;;;;;;;;;6214849;23;20150;-94
2023/09/02 14:05:57;;;;;;;1.60;1.50;;;;;;;;;;6215380;23;20151;-96
2023/09/02 14:08:40;;;;;;;1.15;1.15;;;;;;;;;;6214967;23;20147;-95
2023/09/02 14:11:08;;;;;;;1.30;1.30;;;;;;;;;;6215032;23;20151;-95
2023/09/02 14:13:40;;;;;;;0.88;0.88;;;;;;;;;;6214674;23;20162;-95
2023/09/02 14:16:09;;;;;;;0.90;0.90;;;;;;;;;;6214752;23;20162;-96
2023/09/02 14:18:37;;;;;;;1.67;1.58;;;;;;;;;;6214954;23;20170;-95
2023/09/02 14:21:06;;;;;;;1.27;1.27;;;;;;;;;;6214903;23;20147;-95
2023/09/02 14:23:33;;;;;;;0.75;0.75;;;;;;;;;;6214527;23;20158;-96
2023/09/02 14:26:01;;;;;;;1.20;1.20;;;;;;;;;;6214674;23;20154;-94
2023/09/02 14:28:30;;;;;;;1.85;1.75;;;;;;;;;;6214786;23;20147;-95
2023/09/02 14:30:59;;;;;;;5.13;4.72;;;;;;;;;;6214678;23;20151;-96
2023/09/02 14:33:27;;;;;;;2.10;2.00;;;;;;;;;;6214175;23;20158;-95
2023/09/02 14:35:54;;;;;;;1.10;1.10;;;;;;;;;;6214478;23;20161;-95
2023/09/02 14:38:22;;;;;;;1.98;1.88;;;;;;;;;;6214604;23;20147;-94
2023/09/02 14:40:50;;;;;;;1.35;1.25;;;;;;;;;;6214526;23;20151;-95
2023/09/02 14:43:18;;;;;;;1.30;1.30;;;;;;;;;;6214370;23;20176;-94
2023/09/02 14:45:45;;;;;;;1.20;1.20;;;;;;;;;;6214384;23;20150;-95
2023/09/02 14:48:14;;;;;;;1.02;1.02;;;;;;;;;;6214617;23;20143;-96
2023/09/02 14:50:42;;;;;;;1.45;1.35;;;;;;;;;;6214533;23;20150;-95
2023/09/02 14:53:10;;;;;;;0.93;0.93;;;;;;;;;;6213927;23;20162;-96
2023/09/02 14:55:37;;;;;;;1.48;1.38;;;;;;;;;;6214372;23;20146;-95
2023/09/02 14:58:05;;;;;;;0.98;0.98;;;;;;;;;;6214477;23;20147;-95
2023/09/02 15:00:33;;;;;;;1.20;1.17;;;;;;;;;;6214281;23;20150;-95
2023/09/02 15:03:02;;;;;;;1.33;1.23;;;;;;;;;;6214338;23;20154;-95
2023/09/02 15:05:34;;;;;;;1.17;1.17;;;;;;;;;;6214391;23;20151;-95
2023/09/02 15:08:03;;;;;;;1.15;1.15;;;;;;;;;;6214462;23;20146;-95
2023/09/02 15:10:31;;;;;;;1.00;1.00;;;;;;;;;;6214247;23;20147;-95
2023/09/02 15:12:59;;;;;;;1.00;1.00;;;;;;;;;;6213934;23;20163;-96
2023/09/02 15:15:31;;;;;;;1.30;1.20;;;;;;;;;;6214114;23;20151;-95
2023/09/02 15:18:00;;;;;;;1.63;1.52;;;;;;;;;;6214450;23;20169;-95
2023/09/02 15:20:30;;;;;;;1.60;1.50;;;;;;;;;;6213843;23;20150;-96
2023/09/02 15:22:58;;;;;;;3.47;3.17;;;;;;;;;;6214012;23;20143;-95
2023/09/02 15:25:26;;;;;;;6.18;5.68;;;;;;;;;;6214122;23;20143;-96
2023/09/02 15:27:54;;;;;;;6.43;5.82;;;;;;;;;;6214712;23;20153;-95
2023/09/02 15:30:22;;;;;;;6.57;5.97;;;;;;;;;;6214238;23;20143;-95
2023/09/02 15:32:56;;;;;;;3.85;3.50;;;;;;;;;;6213804;23;20159;-96
2023/09/02 15:35:24;;;;;;;3.60;3.30;;;;;;;;;;6214130;23;20142;-94
2023/09/02 15:37:53;;;;;;;2.75;2.55;;;;;;;;;;6214202;23;20146;-95
2023/09/02 15:40:27;;;;;;;3.22;2.92;;;;;;;;;;6214154;23;20177;-94
2023/09/02 15:42:55;;;;;;;2.72;2.53;;;;;;;;;;6214075;23;20154;-95
2023/09/02 15:45:23;;;;;;;1.48;1.38;;;;;;;;;;6214121;23;20150;-94
2023/09/02 15:47:51;;;;;;;4.53;4.18;;;;;;;;;;6214100;23;20151;-95
2023/09/02 15:50:20;;;;;;;3.58;3.28;;;;;;;;;;6214142;23;20198;-95
2023/09/02 15:52:49;;;;;;;2.15;2.03;;;;;;;;;;6213642;23;20159;-95
2023/09/02 15:55:20;;;;;;;1.70;1.60;;;;;;;;;;6213913;23;20166;-96
2023/09/02 15:57:48;;;;;;;2.45;2.22;;;;;;;;;;6214130;23;20158;-96
2023/09/02 16:00:16;;;;;;;2.65;2.45;;;;;;;;;;6214102;23;20147;-95
2023/09/02 16:02:44;;;;;;;4.75;4.32;;;;;;;;;;6213903;23;20151;-95
2023/09/02 16:05:11;;;;;;;4.13;3.72;;;;;;;;;;6214064;23;20151;-95
2023/09/02 16:07:39;;;;;;;5.18;4.18;;;;;;;;;;6214033;23;20150;-96
2023/09/02 16:10:08;;;;;;;6.85;6.25;;;;;;;;;;6213954;23;20155;-94
2023/09/02 16:12:37;;;;;;;4.95;4.55;;;;;;;;;;6213909;23;20151;-95
2023/09/02 16:15:09;;;;;;;3.67;3.38;;;;;;;;;;6213882;23;20146;-95
2023/09/02 16:17:39;;;;;;;2.75;2.55;;;;;;;;;;6213984;23;20158;-95
2023/09/02 16:20:10;;;;;;;1.50;1.40;;;;;;;;;;6213981;23;20150;-95